Home > Products > Valid Products > MTR

000
SAUS45 KLKN 011354
MTRP68
METAR KP68 011353Z AUTO 17004KT 16/M04 A3026 RMK AO1 SLP156
T01611044





000
SAUS45 KLKN 011254
MTRP68
METAR KP68 011253Z AUTO 18006KT 13/M05 A3024 RMK AO1 SLP152
T01331050





000
SAUS45 KLKN 011155
MTRP68
METAR KP68 011153Z AUTO 21008KT 14/M05 A3023 RMK AO1 SLP146
T01391050 10222 20133 58001





000
SAUS45 KLKN 011055
MTRP68
METAR KP68 011053Z AUTO 20007KT 16/M04 A3023 RMK AO1 SLP146
T01561044





000
SAUS45 KLKN 010955
MTRP68
METAR KP68 010953Z AUTO 20005KT 14/M02 A3023 RMK AO1 SLP147
T01391017





000
SAUS45 KLKN 010955
MTRP68
METAR KP68 010953Z AUTO 20005KT 14/M02 A3023 RMK AO1 SLP147
T01391017





000
SAUS45 KLKN 010854
MTRP68
METAR KP68 010853Z AUTO 20006KT 15/M02 A3023 RMK AO1 SLP147
T01501017 58004





000
SAUS45 KLKN 010854
MTRP68
METAR KP68 010853Z AUTO 20006KT 15/M02 A3023 RMK AO1 SLP147
T01501017 58004





000
SAUS45 KLKN 010754
MTRP68
METAR KP68 010753Z AUTO 19005KT 17/M02 A3025 RMK AO1 SLP148
T01721017 403330106





000
SAUS45 KLKN 010754
MTRP68
METAR KP68 010753Z AUTO 19005KT 17/M02 A3025 RMK AO1 SLP148
T01721017 403330106





000
SAUS45 KLKN 010655
MTRP68
METAR KP68 010653Z AUTO 10004KT 18/00 A3026 RMK AO1 SLP153 T01780000





000
SAUS45 KLKN 010655
MTRP68
METAR KP68 010653Z AUTO 10004KT 18/00 A3026 RMK AO1 SLP153 T01780000





000
SAUS45 KLKN 010555
MTRP68
METAR KP68 010553Z AUTO 05005KT 22/M02 A3025 RMK AO1 SLP144
T02221017 10328 20211 51008





000
SAUS45 KLKN 010555
MTRP68
METAR KP68 010553Z AUTO 05005KT 22/M02 A3025 RMK AO1 SLP144
T02221017 10328 20211 51008





000
SAUS45 KLKN 010455
MTRP68
METAR KP68 010453Z AUTO 15003KT 22/M01 A3025 RMK AO1 SLP148
T02221006





000
SAUS45 KLKN 010354
MTRP68
METAR KP68 010353Z AUTO 19006KT 25/M01 A3024 RMK AO1 SLP146
T02501011





000
SAUS45 KLKN 010254
MTRP68
METAR KP68 010253Z AUTO 24007KT 27/M01 A3022 RMK AO1 SLP138
T02721011 55005





000
SAUS45 KLKN 010154
MTRP68
METAR KP68 010153Z AUTO 26009KT 30/M02 A3022 RMK AO1 SLP142
T03001022





000
SAUS45 KLKN 010055
MTRP68
METAR KP68 010053Z AUTO 20010G14KT 32/M03 A3021 RMK AO1 SLP145
T03221028





000
SAUS45 KLKN 312354
MTRP68
METAR KP68 312353Z AUTO 26008KT 32/M03 A3024 RMK AO1 SLP152
T03221028 10333 20294 56013





000
SAUS45 KLKN 312254
MTRP68
METAR KP68 312253Z AUTO 07006KT 32/M04 A3025 RMK AO1 SLP156
T03221039





000
SAUS45 KLKN 312154
MTRP68
METAR KP68 312153Z AUTO 16005KT 32/M04 A3027 RMK AO1 SLP159
T03221039





000
SAUS45 KLKN 312154
MTRP68
METAR KP68 312153Z AUTO 16005KT 32/M04 A3027 RMK AO1 SLP159
T03221039





000
SAUS45 KLKN 312055
MTRP68
METAR KP68 312053Z AUTO 21006KT 32/M04 A3028 RMK AO1 SLP166
T03171039 56015





000
SAUS45 KLKN 311955
MTRP68
METAR KP68 311953Z AUTO VRB05KT 32/M05 A3030 RMK AO1 SLP170
T03171050





000
SAUS45 KLKN 311955
MTRP68
METAR KP68 311953Z AUTO VRB05KT 32/M05 A3030 RMK AO1 SLP170
T03171050





000
SAUS45 KLKN 311855
MTRP68
METAR KP68 311853Z AUTO 00000KT 31/M06 A3032 RMK AO1 SLP174
T03111056





000
SAUS45 KLKN 311754
MTRP68
METAR KP68 311753Z AUTO VRB03KT 29/M05 A3033 RMK AO1 SLP186
T02941050 10294 20106 58005





000
SAUS45 KLKN 311655
MTRP68
METAR KP68 311653Z AUTO 05003KT 28/M04 A3034 RMK AO1 SLP179
T02781039





000
SAUS45 KLKN 311555
MTRP68
METAR KP68 311553Z AUTO 05003KT 24/M03 A3035 RMK AO1 SLP189
T02391033





000
SAUS45 KLKN 311455
MTRP68
METAR KP68 311453Z AUTO 34009KT 22/M05 A3035 RMK AO1 SLP188
T02221050 51008





000
SAUS45 KLKN 311354
MTRP68
METAR KP68 311353Z AUTO 00000KT 16/M04 A3035 RMK AO1 SLP190
T01611039





000
SAUS45 KLKN 311255
MTRP68
METAR KP68 311253Z AUTO 21004KT 11/M07 A3033 RMK AO1 SLP190
T01061067





000
SAUS45 KLKN 311154
MTRP68
METAR KP68 311153Z AUTO 20004KT 12/M08 A3032 RMK AO1 SLP182
T01221078 10178 20111 53000





000
SAUS45 KLKN 311154
MTRP68
METAR KP68 311153Z AUTO 20004KT 12/M08 A3032 RMK AO1 SLP182
T01221078 10178 20111 53000





000
SAUS45 KLKN 311054
MTRP68
METAR KP68 311053Z AUTO 20005KT 12/M07 A3032 RMK AO1 SLP182
T01171067





000
SAUS45 KLKN 310954
MTRP68
METAR KP68 310953Z AUTO 18005KT 14/M08 A3032 RMK AO1 SLP175
T01441083





000
SAUS45 KLKN 310855
MTRP68
METAR KP68 310853Z AUTO 00000KT 13/M08 A3032 RMK AO1 SLP177
T01331078 51001





000
SAUS45 KLKN 310755
MTRP68
METAR KP68 310753Z AUTO 18005KT 15/M09 A3032 RMK AO1 SLP177
T01501089 403440067





000
SAUS45 KLKN 310755
MTRP68
METAR KP68 310753Z AUTO 18005KT 15/M09 A3032 RMK AO1 SLP177
T01501089 403440067





000
SAUS45 KLKN 310655
MTRP68
METAR KP68 310653Z AUTO 00000KT 17/M07 A3032 RMK AO1 SLP174
T01721067





000
SAUS45 KLKN 310655
MTRP68
METAR KP68 310653Z AUTO 00000KT 17/M07 A3032 RMK AO1 SLP174
T01721067





000
SAUS45 KLKN 310554
MTRP68
METAR KP68 310553Z AUTO 23004KT 15/M06 A3032 RMK AO1 SLP180
T01501056 10328 20144 51012





000
SAUS45 KLKN 310454
MTRP68
METAR KP68 310453Z AUTO 00000KT 22/M06 A3031 RMK AO1 SLP173
T02171056





000
SAUS45 KLKN 310355
MTRP68
METAR KP68 310353Z AUTO 00000KT 23/M03 A3029 RMK AO1 SLP170
T02281028





000
SAUS45 KLKN 310255
MTRP68
METAR KP68 310253Z AUTO 01006KT 25/M04 A3028 RMK AO1 SLP166
T02501039 53002





000
SAUS45 KLKN 310155
MTRP68
METAR KP68 310153Z AUTO 01009KT 29/M03 A3027 RMK AO1 SLP163
T02891033





000
SAUS45 KLKN 310055
MTRP68
METAR KP68 310053Z AUTO 35010KT 32/M07 A3026 RMK AO1 SLP166
T03171067





000
SAUS45 KLKN 310055
MTRP68
METAR KP68 310053Z AUTO 35010KT 32/M07 A3026 RMK AO1 SLP166
T03171067





000
SAUS45 KLKN 302354
MTRP68
METAR KP68 302353Z AUTO 04010KT 32/M08 A3027 RMK AO1 SLP168
T03221083 10344 20283 56015





000
SAUS45 KLKN 302354
MTRP68
METAR KP68 302353Z AUTO 04010KT 32/M08 A3027 RMK AO1 SLP168
T03221083 10344 20283 56015





000
SAUS45 KLKN 302255
MTRP68
METAR KP68 302253Z AUTO 00000KT 33/M09 A3028 RMK AO1 SLP170
T03281089





000
SAUS45 KLKN 302255
MTRP68
METAR KP68 302253Z AUTO 00000KT 33/M09 A3028 RMK AO1 SLP170
T03281089





000
SAUS45 KLKN 302155
MTRP68
METAR KP68 302153Z AUTO 35008G17KT 34/M08 A3030 RMK AO1 SLP171
T03391083





000
SAUS45 KLKN 302155
MTRP68
METAR KP68 302153Z AUTO 35008G17KT 34/M08 A3030 RMK AO1 SLP171
T03391083





000
SAUS45 KLKN 302054
MTRP68
METAR KP68 302053Z AUTO VRB06KT 34/M07 A3032 RMK AO1 SLP179
T03391072 58014





000
SAUS45 KLKN 302054
MTRP68
METAR KP68 302053Z AUTO VRB06KT 34/M07 A3032 RMK AO1 SLP179
T03391072 58014





000
SAUS45 KLKN 301954
MTRP68
METAR KP68 301953Z AUTO 02008G15KT 33/M07 A3034 RMK AO1 SLP187
T03281067





000
SAUS45 KLKN 301855
MTRP68
METAR KP68 301853Z AUTO 36009KT 31/M04 A3036 RMK AO1 SLP191
T03111039





000
SAUS45 KLKN 301754
MTRP68
METAR KP68 301753Z AUTO 02007KT 29/M05 A3037 RMK AO1 SLP202
T02891050 10289 20067 57004





000
SAUS45 KLKN 301654
MTRP68
METAR KP68 301653Z AUTO VRB03KT 26/M04 A3037 RMK AO1 SLP199
T02561039





000
SAUS45 KLKN 301554
MTRP68
METAR KP68 301553Z AUTO 00000KT 23/M06 A3038 RMK AO1 SLP202
T02281056





000
SAUS45 KLKN 301455
MTRP68
METAR KP68 301453Z AUTO 00000KT 19/M05 A3038 RMK AO1 SLP203
T01941050 51012





000
SAUS45 KLKN 301355
MTRP68
METAR KP68 301353Z AUTO 00000KT 14/M04 A3037 RMK AO1 SLP198
T01441044





000
SAUS45 KLKN 301355
MTRP68
METAR KP68 301353Z AUTO 00000KT 14/M04 A3037 RMK AO1 SLP198
T01441044





000
SAUS45 KLKN 301258
MTRWMC
METAR KWMC 301256Z AUTO 14006KT 10SM CLR 06/M04 A3026 RMK AO2 SLP209
T00611039 TSNO $





000
SAUS45 KLKN 301254
MTRP68
METAR KP68 301253Z AUTO 19005KT 09/M07 A3036 RMK AO1 SLP200
T00941072





000
SAUS45 KLKN 301254
MTRP68
METAR KP68 301253Z AUTO 19005KT 09/M07 A3036 RMK AO1 SLP200
T00941072





000
SAUS45 KLKN 301159 COR
MTRP68
METAR KP68 301153Z AUTO 18004KT 09/M07 A3034 RMK AO1 SLP192
T00891067 10167 20078 53007





000
SAUS45 KLKN 301159 COR
MTRP68
METAR KP68 301153Z AUTO 18004KT 09/M07 A3034 RMK AO1 SLP192
T00891067 10167 20078 53007





000
SAUS45 KLKN 301158
MTRWMC
METAR KWMC 301156Z AUTO 00000KT 10SM CLR 09/M05 A3024 RMK AO2 SLP199
T00941050 10222 20083 51008 TSNO $





000
SAUS45 KLKN 301158
MTRWMC
METAR KWMC 301156Z AUTO 00000KT 10SM CLR 09/M05 A3024 RMK AO2 SLP199
T00941050 10222 20083 51008 TSNO $





000
SAUS45 KLKN 301155 COR
MTRP68
METAR KP68 301153Z AUTO 18004KT 09/M07 A3034 RMK AO1 SLP192
T00891067 10167 20078 53007





000
SAUS45 KLKN 301155 COR
MTRP68
METAR KP68 301153Z AUTO 18004KT 09/M07 A3034 RMK AO1 SLP192
T00891067 10167 20078 53007





000
SAUS45 KLKN 301058
MTRWMC
METAR KWMC 301056Z AUTO 12006KT 10SM CLR 08/M03 A3024 RMK AO2 SLP198
T00831028 TSNO $





000
SAUS45 KLKN 301055
MTRP68
METAR KP68 301053Z AUTO 15006KT 09/M05 A3033 RMK AO1 SLP188
T00891050





000
SAUS45 KLKN 301055
MTRP68
METAR KP68 301053Z AUTO 15006KT 09/M05 A3033 RMK AO1 SLP188
T00891050





000
SAUS45 KLKN 300957
MTRWMC
METAR KWMC 300956Z AUTO 09004KT 10SM CLR 17/M05 A3023 RMK AO2 SLP185
T01721050 TSNO $





000
SAUS45 KLKN 300955
MTRP68
METAR KP68 300953Z AUTO 19004KT 11/M07 A3032 RMK AO1 SLP184
T01111067





000
SAUS45 KLKN 300858
MTRWMC
METAR KWMC 300856Z AUTO 12003KT 10SM CLR 18/M06 A3021 RMK AO2 SLPNO
T01831056 51007 TSNO $





000
SAUS45 KLKN 300854
MTRP68
METAR KP68 300853Z AUTO 17004KT 12/M07 A3032 RMK AO1 SLP182
T01171067 53001





000
SAUS45 KLKN 300758
MTRWMC
METAR KWMC 300756Z AUTO 05015KT 10SM CLR 22/M06 A3021 RMK AO2 SLP175
T02221061 403330078 TSNO $





000
SAUS45 KLKN 300755
MTRP68
METAR KP68 300753Z AUTO 00000KT 12/M07 A3032 RMK AO1 SLP185
T01221067 403330050





000
SAUS45 KLKN 300657
MTRWMC
METAR KWMC 300656Z AUTO 04008KT 10SM CLR 18/M05 A3021 RMK AO2 SLP179
T01781050 TSNO $





000
SAUS45 KLKN 300657
MTRWMC
METAR KWMC 300656Z AUTO 04008KT 10SM CLR 18/M05 A3021 RMK AO2 SLP179
T01781050 TSNO $





000
SAUS45 KLKN 300654
MTRP68
METAR KP68 300653Z AUTO 14004KT 15/M07 A3031 RMK AO1 SLP180
T01501067





000
SAUS45 KLKN 300654
MTRP68
METAR KP68 300653Z AUTO 14004KT 15/M07 A3031 RMK AO1 SLP180
T01501067





000
SAUS45 KLKN 300557
MTRWMC
METAR KWMC 300556Z AUTO 13004KT 10SM CLR 15/M07 A3019 RMK AO2 SLP182
T01501067 10333 20150 51009 TSNO $





000
SAUS45 KLKN 300557
MTRWMC
METAR KWMC 300556Z AUTO 13004KT 10SM CLR 15/M07 A3019 RMK AO2 SLP182
T01501067 10333 20150 51009 TSNO $





000
SAUS45 KLKN 300555
MTRP68
METAR KP68 300553Z AUTO 13/M06 A3031 RMK AO1 SLP189 T01331061 10328
20133 51019





000
SAUS45 KLKN 300458
MTRWMC
METAR KWMC 300456Z AUTO 29003KT 10SM CLR 17/M08 A3019 RMK AO2 SLP181
T01721078 TSNO $





000
SAUS45 KLKN 300458
MTRWMC
METAR KWMC 300456Z AUTO 29003KT 10SM CLR 17/M08 A3019 RMK AO2 SLP181
T01721078 TSNO $





000
SAUS45 KLKN 300455
MTRP68
METAR KP68 300453Z AUTO 00000KT 19/M04 A3030 RMK AO1 SLP178
T01891039





000
SAUS45 KLKN 300455
MTRP68
METAR KP68 300453Z AUTO 00000KT 19/M04 A3030 RMK AO1 SLP178
T01891039





000
SAUS45 KLKN 300405 COR
MTRWMC
METAR KWMC 300156Z AU
NO CARRIER

RING

CONNECT

RNORRYWMC ALL
TTAA00 KWMC 300405 COR
.A WMC 0730 DH0400/PPH 0.00





000
SAUS45 KLKN 300358
MTRWMC
METAR KWMC 300356Z AUTO 09004KT 10SM CLR 22/M04 A3017 RMK AO2 SLP174
T02171039 TSNO $





000
SAUS45 KLKN 300354
MTRP68
METAR KP68 300353Z AUTO 34007KT 22/M06 A3027 RMK AO1 SLP168
T02171056





000
SAUS45 KLKN 300258
MTRWMC
METAR KWMC 300256Z AUTO 36006KT 10SM CLR 28/M06 A3016 RMK AO2 SLP166
T02831061 55000 TSNO $





000
SAUS45 KLKN 300254
MTRP68
METAR KP68 300253Z AUTO 02007KT 24/M01 A3025 RMK AO1 SLP161
T02441011 53005





000
SAUS45 KLKN 300254
MTRP68
METAR KP68 300253Z AUTO 02007KT 24/M01 A3025 RMK AO1 SLP161
T02441011 53005





000
SAUS45 KLKN 300205 COR
MTRWMC
METAR KWMC 300156Z AUTO 27006KT 10SM CLR 32/M06 A3015 RMK AO2 SLP169
T03171056 TSNO $





000
SAUS45 KLKN 300154
MTRP68
METAR KP68 300153Z AUTO 36011G19KT 30/M06 A3023 RMK AO1 SLP156
T03001061





000
SAUS45 KLKN 300058
MTRWMC
METAR KWMC 300056Z AUTO 30006KT 10SM CLR 32/M06 A3016 RMK AO2 SLP165
T03221061 TSNO $





000
SAUS45 KLKN 300055
MTRP68
METAR KP68 300053Z AUTO 36011KT 32/M08 A3022 RMK AO1 SLP158
T03171078





000
SAUS45 KLKN 292358
MTRWMC
METAR KWMC 292356Z AUTO 35004KT 10SM CLR 33/M07 A3016 RMK AO2 SLP168
T03281067 10333 20239 TSNO $





000
SAUS45 KLKN 292355
MTRP68
METAR KP68 292353Z AUTO 30012G18KT 33/M10 A3023 RMK AO1 SLP157
T03281100 10333 20250 58014





000
SAUS45 KLKN 292257
MTRWMC
METAR KWMC 292256Z AUTO 27004KT 10SM CLR 32/M07 A3018 RMK AO2 SLP173
T03221072 TSNO $





000
SAUS45 KLKN 292257
MTRWMC
METAR KWMC 292256Z AUTO 27004KT 10SM CLR 32/M07 A3018 RMK AO2 SLP173
T03221072 TSNO $





000
SAUS45 KLKN 292255
MTRP68
METAR KP68 292253Z AUTO 28007G17KT 32/M09 A3024 RMK AO1 SLP162
T03221094





000
SAUS45 KLKN 292158
MTRWMC
METAR KWMC 292156Z AUTO 29009KT 10SM CLR 32/M07 A3020 RMK AO2 SLP177
T03221072 TSNO $





000
SAUS45 KLKN 292158
MTRWMC
METAR KWMC 292156Z AUTO 29009KT 10SM CLR 32/M07 A3020 RMK AO2 SLP177
T03221072 TSNO $





000
SAUS45 KLKN 292154
MTRP68
METAR KP68 292153Z AUTO 30009G17KT 32/M08 A3027 RMK AO1 SLP166
T03221083





000
SAUS45 KLKN 292055
MTRP68
METAR KP68 292053Z AUTO 36009KT 31/M06 A3028 RMK AO1 SLP172
T03111061 58012





000
SAUS45 KLKN 291957
MTRWMC
METAR KWMC 291956Z AUTO VRB05KT 10SM CLR 30/M06 A3022 RMK AO2 SLP185
T03001061 TSNO





000
SAUS45 KLKN 291954
MTRP68
METAR KP68 291953Z AUTO VRB03KT 28/M06 A3029 RMK AO1 SLP184
T02831056





000
SAUS45 KLKN 291858
MTRWMC
METAR KWMC 291856Z AUTO 03008KT 350V050 10SM CLR 29/M05 A3024 RMK
AO2 SLP194 T02941050 TSNO





000
SAUS45 KLKN 291855
MTRP68
METAR KP68 291853Z AUTO 28/M04 A3031 RMK AO1 SLP187 T02781044





000
SAUS45 KLKN 291855
MTRP68
METAR KP68 291853Z AUTO 28/M04 A3031 RMK AO1 SLP187 T02781044





000
SAUS45 KLKN 291757
MTRWMC
METAR KWMC 291756Z AUTO 07006KT 10SM CLR 26/M04 A3025 RMK AO2 SLP197
T02611039 10261 20078 58004 TSNO





000
SAUS45 KLKN 291757
MTRWMC
METAR KWMC 291756Z AUTO 07006KT 10SM CLR 26/M04 A3025 RMK AO2 SLP197
T02611039 10261 20078 58004 TSNO





000
SAUS45 KLKN 291755
MTRP68
METAR KP68 291753Z AUTO VRB05KT 26/M05 A3032 RMK AO1 SLP189
T02561050 10261 20050 58005





000
SAUS45 KLKN 291658
MTRWMC
METAR KWMC 291656Z AUTO 04008KT 10SM CLR 24/M03 A3026 RMK AO2 SLP209
T02391028 TSNO





000
SAUS45 KLKN 291655
MTRP68
METAR KP68 291653Z AUTO 00000KT 22/M06 A3033 RMK AO1 SLP197
T02171056





000
SAUS45 KLKN 291557
MTRWMC
METAR KWMC 291556Z AUTO 05009KT 10SM CLR 20/M04 A3026 RMK AO2 SLP209
T02001039 TSNO





000
SAUS45 KLKN 291557
MTRWMC
METAR KWMC 291556Z AUTO 05009KT 10SM CLR 20/M04 A3026 RMK AO2 SLP209
T02001039 TSNO





000
SAUS45 KLKN 291554
MTRP68
METAR KP68 291553Z AUTO 01007KT 19/M04 A3034 RMK AO1 SLP197
T01941044





000
SAUS45 KLKN 291458
MTRWMC
METAR KWMC 291456Z AUTO 06008KT 10SM CLR 18/M04 A3026 RMK AO2 SLP206
T01781044 53009 TSNO





000
SAUS45 KLKN 291455
MTRP68
METAR KP68 291453Z AUTO 03003KT 16/M05 A3034 RMK AO1 SLP200
T01611050 51009





000
SAUS45 KLKN 291455
MTRP68
METAR KP68 291453Z AUTO 03003KT 16/M05 A3034 RMK AO1 SLP200
T01611050 51009





000
SAUS45 KLKN 291358
MTRWMC
METAR KWMC 291356Z AUTO 22003KT 10SM CLR 09/M05 A3026 RMK AO2 SLP210
T00941050 TSNO





    US Dept of Commerce
    National Oceanic and Atmospheric Administration
    National Weather Service
    1325 East West Highway
    Silver Spring, MD 20910
    Page Author: NWS Internet Services Team
Disclaimer
Information Quality
Credits
Glossary
Privacy Policy
Freedom of Information Act (FOIA)
About Us
Career Opportunities